Time;durP1;ratioP1;P1;durP2;ratioP2;P2;SDS_P1;SDS_P2;PMS_P1;PMS_P2;Temp;Humidity;BMP_temperature;BMP_pressure;BME280_temperature;BME280_humidity;BME280_pressure;Samples;Min_cycle;Max_cycle;Signal;HPM_P1;HPM_P2
2024/04/21 00:01:54;;;;;;;;;;;;;;;;;;5354167;26;20012;-79
2024/04/21 00:04:24;;;;;;;;;;;;;;;;;;5353467;26;20004;-78
2024/04/21 00:06:50;;;;;;;;;;;;;;;;;;5352861;26;20096;-79
2024/04/21 00:09:18;;;;;;;;;;;;;;;;;;5352806;26;19996;-80
2024/04/21 00:11:44;;;;;;;;;;;;;;;;;;5352877;26;20019;-79
2024/04/21 00:14:13;;;;;;;;;;;;;;;;;;5352590;26;20000;-77
2024/04/21 00:16:40;;;;;;;;;;;;;;;;;;5353103;26;20488;-77
2024/04/21 00:19:09;;;;;;;;;;;;;;;;;;5351573;26;20004;-79
2024/04/21 00:21:35;;;;;;;;;;;;;;;;;;5352596;26;20004;-78
2024/04/21 00:24:03;;;;;;;;;;;;;;;;;;5342547;26;20018;-78
2024/04/21 00:26:29;;;;;;;;;;;;;;;;;;5349971;26;20012;-79
2024/04/21 00:28:58;;;;;;;;;;;;;;;;;;5353717;26;20066;-78
2024/04/21 00:31:27;;;;;;;;;;;;;;;;;;5353858;26;20014;-80
2024/04/21 00:33:52;;;;;;;;;;;;;;;;;;5353356;26;20016;-79
2024/04/21 00:36:21;;;;;;;;;;;;;;;;;;5353746;26;20058;-80
2024/04/21 00:38:47;;;;;;;;;;;;;;;;;;5353345;26;20023;-79
2024/04/21 00:41:16;;;;;;;;;;;;;;;;;;5354577;26;19996;-80
2024/04/21 00:43:42;;;;;;;;;;;;;;;;;;5354730;26;20000;-79
2024/04/21 00:46:10;;;;;;;;;;;;;;;;;;5353200;26;20027;-80
2024/04/21 00:48:36;;;;;;;;;;;;;;;;;;5351926;26;20000;-80
2024/04/21 00:51:05;;;;;;;;;;;;;;;;;;5354691;26;20587;-78
2024/04/21 00:53:31;;;;;;;;;;;;;;;;;;5354416;26;20004;-80
2024/04/21 00:55:59;;;;;;;;;;;;;;;;;;5354700;26;20004;-80
2024/04/21 00:58:25;;;;;;;;;;;;;;;;;;5353761;26;20012;-80
2024/04/21 01:00:54;;;;;;;;;;;;;;;;;;5353674;26;20003;-79
2024/04/21 01:03:20;;;;;;;;;;;;;;;;;;5353456;26;20105;-79
2024/04/21 01:05:48;;;;;;;;;;;;;;;;;;5353563;26;20004;-80
2024/04/21 01:08:14;;;;;;;;;;;;;;;;;;5353632;26;20011;-79
2024/04/21 01:10:43;;;;;;;;;;;;;;;;;;5354663;26;19996;-80
2024/04/21 01:13:09;;;;;;;;;;;;;;;;;;5354993;26;20004;-79
2024/04/21 01:15:38;;;;;;;;;;;;;;;;;;5353567;26;20000;-80
2024/04/21 01:18:04;;;;;;;;;;;;;;;;;;5355270;26;20066;-81
2024/04/21 01:20:33;;;;;;;;;;;;;;;;;;5357031;26;20011;-81
2024/04/21 01:22:58;;;;;;;;;;;;;;;;;;5332782;26;20005;-78
2024/04/21 01:25:27;;;;;;;;;;;;;;;;;;5322608;26;20092;-79
2024/04/21 01:27:55;;;;;;;;;;;;;;;;;;5320718;26;20009;-80
2024/04/21 01:30:23;;;;;;;;;;;;;;;;;;5353242;26;20026;-81
2024/04/21 01:32:49;;;;;;;;;;;;;;;;;;5357164;26;20424;-80
2024/04/21 01:35:18;;;;;;;;;;;;;;;;;;5356813;26;20050;-81
2024/04/21 01:37:44;;;;;;;;;;;;;;;;;;5355907;26;20000;-80
2024/04/21 01:40:12;;;;;;;;;;;;;;;;;;5356891;26;20026;-79
2024/04/21 01:42:38;;;;;;;;;;;;;;;;;;5357320;26;20085;-81
2024/04/21 01:45:07;;;;;;;;;;;;;;;;;;5356100;26;20008;-82
2024/04/21 01:47:33;;;;;;;;;;;;;;;;;;5355350;26;20070;-80
2024/04/21 01:50:01;;;;;;;;;;;;;;;;;;5359065;26;20003;-81
2024/04/21 01:52:27;;;;;;;;;;;;;;;;;;5359630;26;20004;-80
2024/04/21 01:54:56;;;;;;;;;;;;;;;;;;5360957;26;20015;-79
2024/04/21 01:57:22;;;;;;;;;;;;;;;;;;5365604;26;20008;-79
2024/04/21 01:59:50;;;;;;;;;;;;;;;;;;5361944;26;20004;-80
2024/04/21 02:02:16;;;;;;;;;;;;;;;;;;5360104;26;20026;-79
2024/04/21 02:04:45;;;;;;;;;;;;;;;;;;5358376;26;20453;-81
2024/04/21 02:07:11;;;;;;;;;;;;;;;;;;5357947;26;20527;-80
2024/04/21 02:09:39;;;;;;;;;;;;;;;;;;5358334;26;20008;-80
2024/04/21 02:12:05;;;;;;;;;;;;;;;;;;5358066;26;20007;-79
2024/04/21 02:14:34;;;;;;;;;;;;;;;;;;5357894;26;20070;-80
2024/04/21 02:17:00;;;;;;;;;;;;;;;;;;5358460;26;20004;-81
2024/04/21 02:19:28;;;;;;;;;;;;;;;;;;5357890;26;20012;-79
2024/04/21 02:21:54;;;;;;;;;;;;;;;;;;5357919;26;20008;-79
2024/04/21 02:24:23;;;;;;;;;;;;;;;;;;5359072;26;20004;-81
2024/04/21 02:26:49;;;;;;;;;;;;;;;;;;5358485;26;20000;-80
2024/04/21 02:29:17;;;;;;;;;;;;;;;;;;5359910;26;20557;-79
2024/04/21 02:31:43;;;;;;;;;;;;;;;;;;5359815;26;20008;-80
2024/04/21 02:34:12;;;;;;;;;;;;;;;;;;5357854;26;20067;-80
2024/04/21 02:36:38;;;;;;;;;;;;;;;;;;5357336;26;20445;-80
2024/04/21 02:39:06;;;;;;;;;;;;;;;;;;5357372;26;20087;-81
2024/04/21 02:41:32;;;;;;;;;;;;;;;;;;5357335;26;20580;-82
2024/04/21 02:44:01;;;;;;;;;;;;;;;;;;5357302;26;20020;-80
2024/04/21 02:46:27;;;;;;;;;;;;;;;;;;5356980;26;20016;-78
2024/04/21 02:48:55;;;;;;;;;;;;;;;;;;5355608;26;20003;-79
2024/04/21 02:51:21;;;;;;;;;;;;;;;;;;5365171;26;20154;-80
2024/04/21 02:53:50;;;;;;;;;;;;;;;;;;5357113;26;20028;-79
2024/04/21 02:56:16;;;;;;;;;;;;;;;;;;5355196;26;20008;-80
2024/04/21 02:58:44;;;;;;;;;;;;;;;;;;5355117;26;20078;-78
2024/04/21 03:01:10;;;;;;;;;;;;;;;;;;5341898;26;20016;-79
2024/04/21 03:03:39;;;;;;;;;;;;;;;;;;5320505;26;20008;-80
2024/04/21 03:06:05;;;;;;;;;;;;;;;;;;5319097;26;20012;-80
2024/04/21 03:08:33;;;;;;;;;;;;;;;;;;5320561;26;20000;-78
2024/04/21 03:10:59;;;;;;;;;;;;;;;;;;5322730;26;20059;-80
2024/04/21 03:13:28;;;;;;;;;;;;;;;;;;5355806;26;20015;-79
2024/04/21 03:15:54;;;;;;;;;;;;;;;;;;5356812;26;20007;-81
2024/04/21 03:18:22;;;;;;;;;;;;;;;;;;5355495;26;20070;-78
2024/04/21 03:20:48;;;;;;;;;;;;;;;;;;5356851;26;20062;-80
2024/04/21 03:23:17;;;;;;;;;;;;;;;;;;5356676;26;20011;-80
2024/04/21 03:25:43;;;;;;;;;;;;;;;;;;5356566;26;20008;-79
2024/04/21 03:28:11;;;;;;;;;;;;;;;;;;5354359;26;20070;-81
2024/04/21 03:30:37;;;;;;;;;;;;;;;;;;5355030;26;20012;-79
2024/04/21 03:33:06;;;;;;;;;;;;;;;;;;5356722;26;20022;-79
2024/04/21 03:35:32;;;;;;;;;;;;;;;;;;5356705;26;20000;-81
2024/04/21 03:38:00;;;;;;;;;;;;;;;;;;5354958;26;20054;-80
2024/04/21 03:40:29;;;;;;;;;;;;;;;;;;5357289;26;20004;-81
2024/04/21 03:42:57;;;;;;;;;;;;;;;;;;5364234;26;20070;-82
2024/04/21 03:45:26;;;;;;;;;;;;;;;;;;5363999;26;20541;-80
2024/04/21 03:47:52;;;;;;;;;;;;;;;;;;5363618;26;20075;-82
2024/04/21 03:50:21;;;;;;;;;;;;;;;;;;5366283;26;20031;-81
2024/04/21 03:52:47;;;;;;;;;;;;;;;;;;5361623;26;20023;-80
2024/04/21 03:55:16;;;;;;;;;;;;;;;;;;5357225;26;20004;-81
2024/04/21 03:57:42;;;;;;;;;;;;;;;;;;5356517;26;20008;-81
2024/04/21 04:00:10;;;;;;;;;;;;;;;;;;5358188;26;20093;-81
2024/04/21 04:02:36;;;;;;;;;;;;;;;;;;5357262;26;20004;-81
2024/04/21 04:05:05;;;;;;;;;;;;;;;;;;5357322;26;20024;-81
2024/04/21 04:07:31;;;;;;;;;;;;;;;;;;5354956;26;20062;-82
2024/04/21 04:09:59;;;;;;;;;;;;;;;;;;5357443;26;20008;-81
2024/04/21 04:12:25;;;;;;;;;;;;;;;;;;5361399;26;20067;-81
2024/04/21 04:14:54;;;;;;;;;;;;;;;;;;5360393;26;20000;-80
2024/04/21 04:17:20;;;;;;;;;;;;;;;;;;5356212;26;20077;-80
2024/04/21 04:19:48;;;;;;;;;;;;;;;;;;5356470;26;20015;-79
2024/04/21 04:22:14;;;;;;;;;;;;;;;;;;5358280;26;20079;-81
2024/04/21 04:24:43;;;;;;;;;;;;;;;;;;5358548;26;20011;-80
2024/04/21 04:27:09;;;;;;;;;;;;;;;;;;5329726;26;20023;-81
2024/04/21 04:29:38;;;;;;;;;;;;;;;;;;5323674;26;20376;-79
2024/04/21 04:32:04;;;;;;;;;;;;;;;;;;5324365;26;20090;-81
2024/04/21 04:34:32;;;;;;;;;;;;;;;;;;5323727;26;20012;-82
2024/04/21 04:36:58;;;;;;;;;;;;;;;;;;5279716;26;1666001;-79
2024/04/21 04:39:27;;;;;;;;;;;;;;;;;;5354328;26;20003;-79
2024/04/21 04:41:53;;;;;;;;;;;;;;;;;;5355260;26;20415;-81
2024/04/21 04:44:21;;;;;;;;;;;;;;;;;;5355830;26;20015;-81
2024/04/21 04:46:47;;;;;;;;;;;;;;;;;;5355352;26;20411;-79
2024/04/21 04:49:16;;;;;;;;;;;;;;;;;;5348107;26;20065;-81
2024/04/21 04:51:42;;;;;;;;;;;;;;;;;;5375506;26;20349;-81
2024/04/21 04:54:10;;;;;;;;;;;;;;;;;;5364708;26;20012;-80
2024/04/21 04:56:36;;;;;;;;;;;;;;;;;;5361276;26;20039;-82
2024/04/21 04:59:05;;;;;;;;;;;;;;;;;;5351845;26;20012;-83
2024/04/21 05:01:31;;;;;;;;;;;;;;;;;;5369400;26;20020;-81
2024/04/21 05:03:59;;;;;;;;;;;;;;;;;;5369281;26;20069;-82
2024/04/21 05:06:25;;;;;;;;;;;;;;;;;;5370253;26;20429;-80
2024/04/21 05:08:54;;;;;;;;;;;;;;;;;;5361141;26;20058;-80
2024/04/21 05:11:20;;;;;;;;;;;;;;;;;;5370155;26;19999;-81
2024/04/21 05:13:48;;;;;;;;;;;;;;;;;;5378599;26;20565;-80
2024/04/21 05:16:14;;;;;;;;;;;;;;;;;;5368690;26;20008;-79
2024/04/21 05:18:43;;;;;;;;;;;;;;;;;;5364934;26;20427;-80
2024/04/21 05:21:09;;;;;;;;;;;;;;;;;;5360489;26;20023;-80
2024/04/21 05:23:38;;;;;;;;;;;;;;;;;;5358210;26;20008;-81
2024/04/21 05:26:04;;;;;;;;;;;;;;;;;;5369813;26;19999;-81
2024/04/21 05:28:33;;;;;;;;;;;;;;;;;;5365718;26;20012;-80
2024/04/21 05:30:59;;;;;;;;;;;;;;;;;;5370682;26;20093;-80
2024/04/21 05:33:27;;;;;;;;;;;;;;;;;;5371042;26;20022;-81
2024/04/21 05:35:53;;;;;;;;;;;;;;;;;;5371608;26;20012;-80
2024/04/21 05:38:22;;;;;;;;;;;;;;;;;;5374821;26;20059;-81
2024/04/21 05:40:48;;;;;;;;;;;;;;;;;;5360545;26;20005;-80
2024/04/21 05:43:16;;;;;;;;;;;;;;;;;;5372136;26;20683;-82
2024/04/21 05:45:42;;;;;;;;;;;;;;;;;;5374046;26;20058;-80
2024/04/21 05:48:11;;;;;;;;;;;;;;;;;;5364541;26;20015;-81
2024/04/21 05:50:37;;;;;;;;;;;;;;;;;;5367010;26;20092;-82
2024/04/21 05:53:05;;;;;;;;;;;;;;;;;;5375692;26;20007;-82
2024/04/21 05:55:31;;;;;;;;;;;;;;;;;;5372668;26;20063;-82
2024/04/21 05:58:00;;;;;;;;;;;;;;;;;;5373635;26;20444;-82
2024/04/21 06:00:26;;;;;;;;;;;;;;;;;;5371968;26;20011;-82
2024/04/21 06:02:55;;;;;;;;;;;;;;;;;;5374374;26;19995;-83
2024/04/21 06:05:21;;;;;;;;;;;;;;;;;;5370525;26;20000;-81
2024/04/21 06:07:50;;;;;;;;;;;;;;;;;;5373795;26;20004;-82
2024/04/21 06:10:16;;;;;;;;;;;;;;;;;;5369845;26;20019;-82
2024/04/21 06:12:44;;;;;;;;;;;;;;;;;;5372495;26;20064;-81
2024/04/21 06:15:10;;;;;;;;;;;;;;;;;;5375632;26;20102;-79
2024/04/21 06:17:39;;;;;;;;;;;;;;;;;;5374205;26;20031;-82
2024/04/21 06:20:08;;;;;;;;;;;;;;;;;;5376656;26;20007;-81
2024/04/21 06:22:36;;;;;;;;;;;;;;;;;;5375142;26;20027;-80
2024/04/21 06:25:02;;;;;;;;;;;;;;;;;;5366887;26;20062;-82
2024/04/21 06:27:31;;;;;;;;;;;;;;;;;;5368215;26;20015;-82
2024/04/21 06:29:57;;;;;;;;;;;;;;;;;;5379755;26;20075;-80
2024/04/21 06:32:25;;;;;;;;;;;;;;;;;;5368822;26;20025;-79
2024/04/21 06:34:51;;;;;;;;;;;;;;;;;;5372499;26;20000;-79
2024/04/21 06:37:20;;;;;;;;;;;;;;;;;;5369730;26;20062;-82
2024/04/21 06:39:46;;;;;;;;;;;;;;;;;;5376642;26;20364;-80
2024/04/21 06:42:14;;;;;;;;;;;;;;;;;;5373325;26;20051;-81
2024/04/21 06:44:40;;;;;;;;;;;;;;;;;;5364337;26;20036;-83
2024/04/21 06:47:09;;;;;;;;;;;;;;;;;;5366837;26;20026;-82
2024/04/21 06:49:36;;;;;;;;;;;;;;;;;;5373933;26;20000;-81
2024/04/21 06:52:05;;;;;;;;;;;;;;;;;;5369573;26;20486;-81
2024/04/21 06:54:31;;;;;;;;;;;;;;;;;;5366692;26;20007;-80
2024/04/21 06:56:59;;;;;;;;;;;;;;;;;;5368447;26;20084;-81
2024/04/21 06:59:25;;;;;;;;;;;;;;;;;;5355412;26;20003;-80
2024/04/21 07:01:54;;;;;;;;;;;;;;;;;;5360634;26;20085;-81
2024/04/21 07:04:20;;;;;;;;;;;;;;;;;;5371318;26;20062;-80
2024/04/21 07:06:48;;;;;;;;;;;;;;;;;;5368358;26;20008;-82
2024/04/21 07:09:14;;;;;;;;;;;;;;;;;;5382355;26;20058;-82
2024/04/21 07:11:43;;;;;;;;;;;;;;;;;;5377129;26;20008;-82
2024/04/21 07:14:09;;;;;;;;;;;;;;;;;;5368812;26;20101;-83
2024/04/21 07:16:38;;;;;;;;;;;;;;;;;;5362934;26;20000;-82
2024/04/21 07:19:03;;;;;;;;;;;;;;;;;;5368969;26;20058;-82
2024/04/21 07:21:32;;;;;;;;;;;;;;;;;;5356551;26;20015;-81
2024/04/21 07:23:58;;;;;;;;;;;;;;;;;;5362565;26;20011;-82
2024/04/21 07:26:27;;;;;;;;;;;;;;;;;;5361591;26;20004;-83
2024/04/21 07:28:53;;;;;;;;;;;;;;;;;;5347502;26;20010;-82
2024/04/21 07:31:22;;;;;;;;;;;;;;;;;;5362758;26;19988;-83
2024/04/21 07:33:48;;;;;;;;;;;;;;;;;;5369939;26;20004;-85
2024/04/21 07:36:16;;;;;;;;;;;;;;;;;;5348539;26;20063;-86
2024/04/21 07:38:42;;;;;;;;;;;;;;;;;;5361025;26;20337;-82
2024/04/21 07:41:11;;;;;;;;;;;;;;;;;;5348321;26;20030;-84
2024/04/21 07:43:37;;;;;;;;;;;;;;;;;;5356344;26;20000;-83
2024/04/21 07:46:05;;;;;;;;;;;;;;;;;;5363780;26;20015;-85
2024/04/21 07:48:31;;;;;;;;;;;;;;;;;;5361809;26;20012;-85
2024/04/21 07:51:00;;;;;;;;;;;;;;;;;;5364017;26;20000;-83
2024/04/21 07:53:26;;;;;;;;;;;;;;;;;;5363413;26;20008;-84
2024/04/21 07:55:54;;;;;;;;;;;;;;;;;;5363126;26;20004;-84
2024/04/21 07:58:20;;;;;;;;;;;;;;;;;;5362006;26;20070;-84
2024/04/21 08:00:49;;;;;;;;;;;;;;;;;;5363231;26;20000;-83
2024/04/21 08:03:15;;;;;;;;;;;;;;;;;;5362520;26;20011;-87
2024/04/21 08:05:43;;;;;;;;;;;;;;;;;;5360610;26;20000;-84
2024/04/21 08:08:09;;;;;;;;;;;;;;;;;;5363190;26;20008;-82
2024/04/21 08:10:38;;;;;;;;;;;;;;;;;;5349165;26;20023;-83
2024/04/21 08:13:04;;;;;;;;;;;;;;;;;;5362504;26;20008;-83
2024/04/21 08:15:33;;;;;;;;;;;;;;;;;;5363416;26;19996;-84
2024/04/21 08:17:58;;;;;;;;;;;;;;;;;;5367738;26;20000;-81
2024/04/21 08:20:27;;;;;;;;;;;;;;;;;;5390098;26;20062;-83
2024/04/21 08:22:53;;;;;;;;;;;;;;;;;;5328895;26;20009;-85
2024/04/21 08:25:22;;;;;;;;;;;;;;;;;;5358153;26;20081;-84
2024/04/21 08:27:47;;;;;;;;;;;;;;;;;;5363227;26;20004;-84
2024/04/21 08:30:16;;;;;;;;;;;;;;;;;;5363698;26;20066;-86
2024/04/21 08:32:42;;;;;;;;;;;;;;;;;;5350029;26;20011;-84
2024/04/21 08:35:11;;;;;;;;;;;;;;;;;;5350319;26;20119;-84
2024/04/21 08:37:37;;;;;;;;;;;;;;;;;;5361859;26;20011;-82
2024/04/21 08:40:05;;;;;;;;;;;;;;;;;;5375103;26;19988;-84
2024/04/21 08:42:31;;;;;;;;;;;;;;;;;;5368155;26;20439;-83
2024/04/21 08:45:00;;;;;;;;;;;;;;;;;;5363487;26;20000;-81
2024/04/21 08:47:26;;;;;;;;;;;;;;;;;;5359474;26;20062;-83
2024/04/21 08:49:54;;;;;;;;;;;;;;;;;;5359251;26;20000;-81
2024/04/21 08:52:20;;;;;;;;;;;;;;;;;;5358762;26;19996;-81
2024/04/21 08:54:49;;;;;;;;;;;;;;;;;;5361317;26;20035;-82
2024/04/21 08:57:15;;;;;;;;;;;;;;;;;;5367471;26;20061;-81
2024/04/21 08:59:43;;;;;;;;;;;;;;;;;;5361235;26;20016;-81
2024/04/21 09:02:09;;;;;;;;;;;;;;;;;;5362797;26;20007;-81
2024/04/21 09:04:38;;;;;;;;;;;;;;;;;;5363730;26;20004;-81
2024/04/21 09:07:04;;;;;;;;;;;;;;;;;;5347280;26;20012;-81
2024/04/21 09:09:32;;;;;;;;;;;;;;;;;;5325200;26;20090;-81
2024/04/21 09:11:58;;;;;;;;;;;;;;;;;;5326058;26;20001;-80
2024/04/21 09:14:27;;;;;;;;;;;;;;;;;;5327208;26;20178;-81
2024/04/21 09:16:53;;;;;;;;;;;;;;;;;;5346544;26;20004;-82
2024/04/21 09:19:22;;;;;;;;;;;;;;;;;;5360461;26;20058;-84
2024/04/21 09:21:48;;;;;;;;;;;;;;;;;;5360667;26;20022;-81
2024/04/21 09:24:17;;;;;;;;;;;;;;;;;;5333199;26;20004;-82
2024/04/21 09:26:45;;;;;;;;;;;;;;;;;;5333209;26;20058;-82
2024/04/21 09:29:13;;;;;;;;;;;;;;;;;;5345530;26;20022;-82
2024/04/21 09:31:39;;;;;;;;;;;;;;;;;;5361457;26;20067;-82
2024/04/21 09:34:08;;;;;;;;;;;;;;;;;;5362317;26;20473;-82
2024/04/21 09:36:34;;;;;;;;;;;;;;;;;;5361946;26;20008;-82
2024/04/21 09:39:02;;;;;;;;;;;;;;;;;;5350735;26;20506;-83
2024/04/21 09:41:28;;;;;;;;;;;;;;;;;;5327247;26;20000;-82
2024/04/21 09:43:57;;;;;;;;;;;;;;;;;;5335447;26;20542;-83
2024/04/21 09:46:23;;;;;;;;;;;;;;;;;;5361904;26;20027;-83
2024/04/21 09:48:51;;;;;;;;;;;;;;;;;;5361584;26;20008;-82
2024/04/21 09:51:17;;;;;;;;;;;;;;;;;;5348095;26;20063;-82
2024/04/21 09:53:46;;;;;;;;;;;;;;;;;;5355744;26;20008;-82
2024/04/21 09:56:12;;;;;;;;;;;;;;;;;;5354657;26;20008;-82
2024/04/21 09:58:40;;;;;;;;;;;;;;;;;;5361555;26;20113;-81
2024/04/21 10:01:06;;;;;;;;;;;;;;;;;;5361695;26;20000;-83
2024/04/21 10:03:35;;;;;;;;;;;;;;;;;;5361899;26;20063;-82
2024/04/21 10:06:01;;;;;;;;;;;;;;;;;;5361848;26;20000;-82
2024/04/21 10:08:30;;;;;;;;;;;;;;;;;;5361153;26;20023;-83
2024/04/21 10:10:55;;;;;;;;;;;;;;;;;;5363240;26;20000;-82
2024/04/21 10:13:26;;;;;;;;;;;;;;;;;;5335516;26;20004;-80
2024/04/21 10:15:52;;;;;;;;;;;;;;;;;;5365325;26;20391;-82
2024/04/21 10:18:23;;;;;;;;;;;;;;;;;;5365719;26;20049;-83
2024/04/21 10:20:49;;;;;;;;;;;;;;;;;;5354425;26;20022;-83
2024/04/21 10:23:17;;;;;;;;;;;;;;;;;;5353269;26;20407;-84
2024/04/21 10:25:44;;;;;;;;;;;;;;;;;;5351536;26;20004;-84
2024/04/21 10:28:13;;;;;;;;;;;;;;;;;;5353215;26;19997;-83
2024/04/21 10:30:39;;;;;;;;;;;;;;;;;;5332130;26;20091;-82
2024/04/21 10:33:09;;;;;;;;;;;;;;;;;;5348836;26;20016;-82
2024/04/21 10:35:35;;;;;;;;;;;;;;;;;;5367136;26;20004;-84
2024/04/21 10:38:04;;;;;;;;;;;;;;;;;;5365091;26;20008;-82
2024/04/21 10:40:30;;;;;;;;;;;;;;;;;;5366977;26;20094;-82
2024/04/21 10:42:59;;;;;;;;;;;;;;;;;;5343294;26;20041;-83
2024/04/21 10:45:28;;;;;;;;;;;;;;;;;;5336998;26;20001;-81
2024/04/21 10:47:56;;;;;;;;;;;;;;;;;;5354812;26;20004;-84
2024/04/21 10:50:22;;;;;;;;;;;;;;;;;;5363444;26;20008;-83
2024/04/21 10:52:51;;;;;;;;;;;;;;;;;;5372203;26;20003;-84
2024/04/21 10:55:17;;;;;;;;;;;;;;;;;;5367602;26;20067;-79
2024/04/21 10:57:45;;;;;;;;;;;;;;;;;;5354798;26;20019;-81
2024/04/21 11:00:15;;;;;;;;;;;;;;;;;;5361279;26;20067;-80
2024/04/21 11:02:41;;;;;;;;;;;;;;;;;;5363296;26;20000;-83
2024/04/21 11:05:09;;;;;;;;;;;;;;;;;;5369433;26;20055;-81
2024/04/21 11:07:35;;;;;;;;;;;;;;;;;;5363022;26;20023;-80
2024/04/21 11:10:04;;;;;;;;;;;;;;;;;;5363950;26;20027;-82
2024/04/21 11:12:30;;;;;;;;;;;;;;;;;;5361557;26;20004;-82
2024/04/21 11:14:58;;;;;;;;;;;;;;;;;;5358073;26;20066;-82
2024/04/21 11:17:24;;;;;;;;;;;;;;;;;;5362043;26;20070;-84
2024/04/21 11:19:53;;;;;;;;;;;;;;;;;;5357564;26;20016;-84
2024/04/21 11:22:19;;;;;;;;;;;;;;;;;;5362908;26;20020;-84
2024/04/21 11:24:47;;;;;;;;;;;;;;;;;;5362217;26;20022;-84
2024/04/21 11:27:13;;;;;;;;;;;;;;;;;;5362701;26;20086;-83
2024/04/21 11:29:42;;;;;;;;;;;;;;;;;;5355245;26;20008;-84
2024/04/21 11:32:08;;;;;;;;;;;;;;;;;;5364633;26;20022;-81
2024/04/21 11:34:36;;;;;;;;;;;;;;;;;;5362944;26;20000;-80
2024/04/21 11:37:02;;;;;;;;;;;;;;;;;;5358844;26;20070;-84
2024/04/21 11:39:31;;;;;;;;;;;;;;;;;;5363187;26;20015;-84
2024/04/21 11:41:57;;;;;;;;;;;;;;;;;;5375223;26;20008;-85
2024/04/21 11:44:29;;;;;;;;;;;;;;;;;;5382620;26;20004;-84
2024/04/21 11:46:55;;;;;;;;;;;;;;;;;;5375490;26;20004;-81
2024/04/21 11:49:24;;;;;;;;;;;;;;;;;;5371131;26;20018;-80
2024/04/21 11:51:50;;;;;;;;;;;;;;;;;;5372009;26;20000;-80
2024/04/21 11:54:18;;;;;;;;;;;;;;;;;;5374402;26;20066;-81
2024/04/21 11:56:44;;;;;;;;;;;;;;;;;;5366962;26;20012;-82
2024/04/21 11:59:13;;;;;;;;;;;;;;;;;;5368828;26;20000;-82
2024/04/21 12:01:39;;;;;;;;;;;;;;;;;;5353689;26;20884;-82
2024/04/21 12:04:07;;;;;;;;;;;;;;;;;;5362123;26;20085;-79
2024/04/21 12:06:33;;;;;;;;;;;;;;;;;;5358827;26;20013;-80
2024/04/21 12:09:05;;;;;;;;;;;;;;;;;;5358631;26;19992;-81
2024/04/21 12:11:31;;;;;;;;;;;;;;;;;;5369810;26;20017;-80
2024/04/21 12:14:00;;;;;;;;;;;;;;;;;;5389685;26;20055;-82
2024/04/21 12:16:26;;;;;;;;;;;;;;;;;;5359939;26;20000;-83
2024/04/21 12:18:54;;;;;;;;;;;;;;;;;;5363901;26;20022;-83
2024/04/21 12:21:20;;;;;;;;;;;;;;;;;;5365169;26;20062;-79
2024/04/21 12:23:49;;;;;;;;;;;;;;;;;;5363302;26;20012;-80
2024/04/21 12:26:15;;;;;;;;;;;;;;;;;;5349800;26;20018;-80
2024/04/21 12:28:43;;;;;;;;;;;;;;;;;;5363037;26;20048;-81
2024/04/21 12:31:09;;;;;;;;;;;;;;;;;;5357425;26;20009;-80
2024/04/21 12:33:39;;;;;;;;;;;;;;;;;;5361923;26;20045;-81
2024/04/21 12:36:08;;;;;;;;;;;;;;;;;;5364438;26;20004;-82
2024/04/21 12:38:34;;;;;;;;;;;;;;;;;;5363258;26;20075;-80
2024/04/21 12:41:07;;;;;;;;;;;;;;;;;;5364540;26;20012;-83
2024/04/21 12:43:33;;;;;;;;;;;;;;;;;;5362656;26;20004;-81
2024/04/21 12:46:01;;;;;;;;;;;;;;;;;;5362768;26;20507;-82
2024/04/21 12:48:27;;;;;;;;;;;;;;;;;;5361832;26;20011;-81
2024/04/21 12:50:56;;;;;;;;;;;;;;;;;;5361892;26;20534;-81
2024/04/21 12:53:22;;;;;;;;;;;;;;;;;;5363686;26;20036;-81
2024/04/21 12:55:50;;;;;;;;;;;;;;;;;;5359385;26;20063;-80
2024/04/21 12:58:16;;;;;;;;;;;;;;;;;;5348840;26;20417;-80
2024/04/21 13:00:45;;;;;;;;;;;;;;;;;;5349220;26;20015;-81
2024/04/21 13:03:11;;;;;;;;;;;;;;;;;;5350631;26;20063;-82
2024/04/21 13:05:39;;;;;;;;;;;;;;;;;;5346345;26;20009;-81
2024/04/21 13:08:05;;;;;;;;;;;;;;;;;;5346837;26;20072;-78
2024/04/21 13:10:34;;;;;;;;;;;;;;;;;;5345704;26;20025;-81
2024/04/21 13:13:02;;;;;;;;;;;;;;;;;;5350092;26;20074;-82
2024/04/21 13:15:28;;;;;;;;;;;;;;;;;;5350811;26;20004;-81
2024/04/21 13:17:57;;;;;;;;;;;;;;;;;;5354909;26;20046;-80
2024/04/21 13:20:23;;;;;;;;;;;;;;;;;;5347431;26;20473;-81
2024/04/21 13:22:53;;;;;;;;;;;;;;;;;;5348617;26;20000;-81
2024/04/21 13:25:19;;;;;;;;;;;;;;;;;;5350088;26;20004;-81
2024/04/21 13:27:47;;;;;;;;;;;;;;;;;;5350503;26;20026;-82
2024/04/21 13:30:13;;;;;;;;;;;;;;;;;;5351977;26;20023;-82
2024/04/21 13:32:42;;;;;;;;;;;;;;;;;;5346900;26;20480;-81
2024/04/21 13:35:08;;;;;;;;;;;;;;;;;;5351418;26;20000;-81
2024/04/21 13:37:37;;;;;;;;;;;;;;;;;;5349804;26;20022;-83
2024/04/21 13:40:02;;;;;;;;;;;;;;;;;;5345491;26;20004;-82
2024/04/21 13:42:31;;;;;;;;;;;;;;;;;;5350231;26;20474;-81
2024/04/21 13:44:57;;;;;;;;;;;;;;;;;;5349316;26;20074;-82
2024/04/21 13:47:25;;;;;;;;;;;;;;;;;;5358722;26;20016;-82
2024/04/21 13:49:55;;;;;;;;;;;;;;;;;;5363799;26;20067;-82
2024/04/21 13:52:23;;;;;;;;;;;;;;;;;;5363131;26;20032;-82
2024/04/21 13:54:52;;;;;;;;;;;;;;;;;;5351974;26;20016;-82
2024/04/21 13:57:21;;;;;;;;;;;;;;;;;;5355102;26;20389;-82
2024/04/21 13:59:47;;;;;;;;;;;;;;;;;;5364347;26;20004;-80
2024/04/21 14:02:16;;;;;;;;;;;;;;;;;;5363014;26;20027;-82
2024/04/21 14:04:45;;;;;;;;;;;;;;;;;;5363540;26;20004;-82
2024/04/21 14:07:13;;;;;;;;;;;;;;;;;;5363255;26;20031;-81
2024/04/21 14:09:39;;;;;;;;;;;;;;;;;;5363721;26;20023;-81
2024/04/21 14:12:08;;;;;;;;;;;;;;;;;;5362659;26;20004;-81
2024/04/21 14:14:34;;;;;;;;;;;;;;;;;;5363031;26;20011;-81
2024/04/21 14:17:03;;;;;;;;;;;;;;;;;;5364545;26;20027;-81
2024/04/21 14:19:29;;;;;;;;;;;;;;;;;;5364867;26;20023;-82
2024/04/21 14:21:57;;;;;;;;;;;;;;;;;;5363376;26;20044;-84
2024/04/21 14:24:23;;;;;;;;;;;;;;;;;;5367316;26;20071;-82
2024/04/21 14:26:52;;;;;;;;;;;;;;;;;;5368518;26;20028;-83
2024/04/21 14:29:20;;;;;;;;;;;;;;;;;;5365464;26;20000;-83
2024/04/21 14:31:49;;;;;;;;;;;;;;;;;;5363632;26;20004;-80
2024/04/21 14:34:15;;;;;;;;;;;;;;;;;;5363405;26;20079;-82
2024/04/21 14:36:44;;;;;;;;;;;;;;;;;;5362550;26;20011;-82
2024/04/21 14:39:10;;;;;;;;;;;;;;;;;;5377212;26;20038;-81
2024/04/21 14:41:39;;;;;;;;;;;;;;;;;;5364360;26;20000;-80
2024/04/21 14:44:07;;;;;;;;;;;;;;;;;;5363594;26;20015;-82
2024/04/21 14:46:36;;;;;;;;;;;;;;;;;;5370359;26;20089;-80
2024/04/21 14:49:04;;;;;;;;;;;;;;;;;;5384395;26;20065;-84
2024/04/21 14:51:33;;;;;;;;;;;;;;;;;;5370760;26;20062;-83
2024/04/21 14:53:59;;;;;;;;;;;;;;;;;;5364022;26;20027;-82
2024/04/21 14:56:28;;;;;;;;;;;;;;;;;;5364732;26;20004;-82
2024/04/21 14:58:54;;;;;;;;;;;;;;;;;;5363544;26;20071;-82
2024/04/21 15:01:22;;;;;;;;;;;;;;;;;;5371987;26;20000;-83
2024/04/21 15:03:48;;;;;;;;;;;;;;;;;;5363691;26;20067;-81
2024/04/21 15:06:18;;;;;;;;;;;;;;;;;;5360813;26;20007;-79
2024/04/21 15:08:44;;;;;;;;;;;;;;;;;;5366937;26;20000;-82
2024/04/21 15:11:13;;;;;;;;;;;;;;;;;;5384178;26;20041;-82
2024/04/21 15:13:39;;;;;;;;;;;;;;;;;;5372918;26;20023;-82
2024/04/21 15:16:07;;;;;;;;;;;;;;;;;;5371476;26;19999;-81
2024/04/21 15:18:33;;;;;;;;;;;;;;;;;;5356215;26;20035;-81
2024/04/21 15:21:02;;;;;;;;;;;;;;;;;;5374629;26;20054;-82
2024/04/21 15:23:28;;;;;;;;;;;;;;;;;;5378917;26;19999;-81
2024/04/21 15:25:56;;;;;;;;;;;;;;;;;;5347844;26;20036;-81
2024/04/21 15:28:22;;;;;;;;;;;;;;;;;;5349228;26;20008;-81
2024/04/21 15:30:51;;;;;;;;;;;;;;;;;;5360538;26;20003;-81
2024/04/21 15:33:17;;;;;;;;;;;;;;;;;;5361537;26;20086;-82
2024/04/21 15:35:45;;;;;;;;;;;;;;;;;;5368559;26;20019;-82
2024/04/21 15:38:11;;;;;;;;;;;;;;;;;;5370069;26;20063;-82
2024/04/21 15:40:40;;;;;;;;;;;;;;;;;;5360736;26;20012;-81
2024/04/21 15:43:06;;;;;;;;;;;;;;;;;;5362889;26;20007;-82
2024/04/21 15:45:34;;;;;;;;;;;;;;;;;;5359074;26;20004;-81
2024/04/21 15:48:00;;;;;;;;;;;;;;;;;;5350380;26;20022;-81
2024/04/21 15:50:29;;;;;;;;;;;;;;;;;;5349436;26;20012;-82
2024/04/21 15:52:55;;;;;;;;;;;;;;;;;;5347481;26;20008;-81
2024/04/21 15:55:23;;;;;;;;;;;;;;;;;;5349787;26;20004;-81
2024/04/21 15:57:49;;;;;;;;;;;;;;;;;;5349995;26;20004;-80
2024/04/21 16:00:19;;;;;;;;;;;;;;;;;;5348003;26;20059;-81
2024/04/21 16:02:45;;;;;;;;;;;;;;;;;;5349288;26;20004;-82
2024/04/21 16:05:14;;;;;;;;;;;;;;;;;;5345380;26;20004;-81
2024/04/21 16:07:41;;;;;;;;;;;;;;;;;;5350362;26;20008;-81
2024/04/21 16:10:10;;;;;;;;;;;;;;;;;;5347371;26;20016;-82
2024/04/21 16:12:37;;;;;;;;;;;;;;;;;;5347920;26;20023;-80
2024/04/21 16:15:07;;;;;;;;;;;;;;;;;;5350318;26;20004;-80
2024/04/21 16:17:33;;;;;;;;;;;;;;;;;;5345891;26;20000;-80
2024/04/21 16:20:01;;;;;;;;;;;;;;;;;;5341874;26;19997;-81
2024/04/21 16:22:27;;;;;;;;;;;;;;;;;;5347010;26;20008;-82
2024/04/21 16:24:56;;;;;;;;;;;;;;;;;;5346036;26;20012;-80
2024/04/21 16:27:22;;;;;;;;;;;;;;;;;;5349426;26;20520;-80
2024/04/21 16:29:50;;;;;;;;;;;;;;;;;;5350173;26;20008;-80
2024/04/21 16:32:16;;;;;;;;;;;;;;;;;;5345208;26;20004;-79
2024/04/21 16:34:45;;;;;;;;;;;;;;;;;;5347803;26;20018;-81
2024/04/21 16:37:11;;;;;;;;;;;;;;;;;;5342255;26;20012;-81
2024/04/21 16:39:39;;;;;;;;;;;;;;;;;;5342359;26;20081;-81
2024/04/21 16:42:05;;;;;;;;;;;;;;;;;;5348213;26;20027;-80
2024/04/21 16:44:34;;;;;;;;;;;;;;;;;;5354327;26;20020;-82
2024/04/21 16:47:00;;;;;;;;;;;;;;;;;;5355285;26;20063;-84